createdAt,value
2023-03-22T20:48:35.266Z,1001.87
2023-03-22T20:49:35.186Z,1001.86
2023-03-22T20:50:35.147Z,1001.90
2023-03-22T20:51:35.088Z,1001.94
2023-03-22T20:52:35.039Z,1001.97
2023-03-22T20:53:34.992Z,1001.96
2023-03-22T20:54:34.944Z,1001.99
2023-03-22T20:55:34.903Z,1002.01
2023-03-22T20:56:34.853Z,1002.05
2023-03-22T20:57:34.806Z,1002.03
2023-03-22T20:58:34.762Z,1002.00
2023-03-22T20:59:35.779Z,1001.90
2023-03-22T21:00:34.665Z,1001.89
2023-03-22T21:01:34.624Z,1001.88
2023-03-22T21:02:34.581Z,1001.89
2023-03-22T21:03:34.852Z,1001.86
2023-03-22T21:04:34.510Z,1001.92
2023-03-22T21:05:34.463Z,1001.88
2023-03-22T21:06:34.421Z,1001.91
2023-03-22T21:07:34.376Z,1001.85
2023-03-22T21:08:34.310Z,1001.90
2023-03-22T21:09:34.266Z,1001.90
2023-03-22T21:10:34.241Z,1001.95
2023-03-22T21:11:34.506Z,1001.91
2023-03-22T21:12:34.136Z,1001.92
2023-03-22T21:13:34.093Z,1001.85
2023-03-22T21:14:34.049Z,1001.92
2023-03-22T21:15:34.021Z,1001.96
2023-03-22T21:16:33.968Z,1001.93
2023-03-22T21:17:33.922Z,1001.91
2023-03-22T21:18:33.877Z,1001.96
2023-03-22T21:19:33.836Z,1001.99
2023-03-22T21:20:33.820Z,1002.00
2023-03-22T21:21:37.078Z,1001.96
2023-03-22T21:22:33.706Z,1001.93
2023-03-22T21:23:33.675Z,1001.96
2023-03-22T21:24:33.619Z,1001.89
2023-03-22T21:25:33.579Z,1001.90
2023-03-22T21:26:33.574Z,1001.85
2023-03-22T21:27:33.507Z,1001.80
2023-03-22T21:28:33.451Z,1001.83
2023-03-22T21:29:33.403Z,1001.84
2023-03-22T21:30:33.361Z,1001.89
2023-03-22T21:31:33.317Z,1001.81
2023-03-22T21:32:33.282Z,1001.86
2023-03-22T21:33:33.231Z,1001.83
2023-03-22T21:34:33.190Z,1001.83
2023-03-22T21:35:33.142Z,1001.76
2023-03-22T21:36:33.179Z,1001.81
2023-03-22T21:37:33.060Z,1001.86
2023-03-22T21:38:33.017Z,1001.74
2023-03-22T21:39:32.983Z,1001.75
2023-03-22T21:40:32.932Z,1001.81
2023-03-22T21:41:32.885Z,1001.73
2023-03-22T21:42:33.448Z,1001.75
2023-03-22T21:43:32.800Z,1001.76
2023-03-22T21:44:32.773Z,1001.74
2023-03-22T21:45:32.721Z,1001.80
2023-03-22T21:46:32.671Z,1001.76
2023-03-22T21:47:32.630Z,1001.76
2023-03-22T21:48:32.587Z,1001.76
2023-03-22T21:49:32.545Z,1001.72
2023-03-22T21:50:32.502Z,1001.80
2023-03-22T21:51:32.453Z,1001.77
2023-03-22T21:52:32.430Z,1001.72
2023-03-22T21:53:32.369Z,1001.75
2023-03-22T21:54:32.346Z,1001.76
2023-03-22T21:55:32.280Z,1001.70
2023-03-22T21:56:32.239Z,1001.71
2023-03-22T21:58:32.149Z,1001.71
2023-03-22T21:59:32.112Z,1001.66
2023-03-22T22:00:32.078Z,1001.66
2023-03-22T22:01:32.043Z,1001.59
2023-03-22T22:02:32.025Z,1001.68
2023-03-22T22:03:32.144Z,1001.67
2023-03-22T22:04:31.892Z,1001.60
2023-03-22T22:05:31.874Z,1001.65
2023-03-22T22:06:32.156Z,1001.58
2023-03-22T22:07:31.790Z,1001.54
2023-03-22T22:08:31.741Z,1001.58
2023-03-22T22:09:31.685Z,1001.68
2023-03-22T22:10:31.642Z,1001.70
2023-03-22T22:11:31.599Z,1001.48
2023-03-22T22:12:31.551Z,1001.56
2023-03-22T22:13:31.514Z,1001.61
2023-03-22T22:14:31.479Z,1001.58
2023-03-22T22:15:31.418Z,1001.66
2023-03-22T22:16:31.379Z,1001.66
2023-03-22T22:17:31.334Z,1001.68
2023-03-22T22:18:31.285Z,1001.64
2023-03-22T22:19:31.246Z,1001.65
2023-03-22T22:20:31.202Z,1001.67
2023-03-22T22:21:31.158Z,1001.70
2023-03-22T22:22:31.277Z,1001.64
2023-03-22T22:23:31.073Z,1001.66
2023-03-22T22:24:31.058Z,1001.70
2023-03-22T22:25:30.988Z,1001.67
2023-03-22T22:26:30.946Z,1001.67
2023-03-22T22:27:30.902Z,1001.69
2023-03-22T22:28:30.857Z,1001.70
2023-03-22T22:29:30.816Z,1001.66
2023-03-22T22:30:30.772Z,1001.63
2023-03-22T22:31:30.730Z,1001.61
2023-03-22T22:32:30.687Z,1001.58
2023-03-22T22:33:30.643Z,1001.58
2023-03-22T22:34:30.609Z,1001.58
2023-03-22T22:35:30.609Z,1001.64
2023-03-22T22:36:30.518Z,1001.55
2023-03-22T22:37:30.470Z,1001.55
2023-03-22T22:38:30.450Z,1001.52
2023-03-22T22:39:30.383Z,1001.51
2023-03-22T22:40:30.359Z,1001.51
2023-03-22T22:41:30.303Z,1001.49
2023-03-22T22:42:30.254Z,1001.52
2023-03-22T22:43:30.210Z,1001.50
2023-03-22T22:44:30.167Z,1001.50
2023-03-22T22:45:30.150Z,1001.52
2023-03-22T22:46:30.079Z,1001.51
2023-03-22T22:47:30.063Z,1001.55
2023-03-22T22:48:29.995Z,1001.59
2023-03-22T22:49:29.954Z,1001.59
2023-03-22T22:50:29.910Z,1001.59
2023-03-22T22:51:29.868Z,1001.59
2023-03-22T22:52:29.821Z,1001.59
2023-03-22T22:53:29.784Z,1001.60
2023-03-22T22:54:29.739Z,1001.59
2023-03-22T22:55:29.691Z,1001.55
2023-03-22T22:56:29.668Z,1001.56
2023-03-22T22:57:29.624Z,1001.61
2023-03-22T22:58:29.562Z,1001.63
2023-03-22T22:59:29.520Z,1001.62
2023-03-22T23:00:29.501Z,1001.60
2023-03-22T23:01:29.478Z,1001.59
2023-03-22T23:02:29.451Z,1001.57
2023-03-22T23:03:29.454Z,1001.56
2023-03-22T23:04:29.300Z,1001.50
2023-03-22T23:05:29.258Z,1001.54
2023-03-22T23:06:29.232Z,1001.51
2023-03-22T23:07:29.169Z,1001.46
2023-03-22T23:08:29.123Z,1001.41
2023-03-22T23:09:29.084Z,1001.35
2023-03-22T23:10:29.363Z,1001.33
2023-03-22T23:11:29.022Z,1001.34
2023-03-22T23:12:28.988Z,1001.39
2023-03-22T23:13:28.922Z,1001.41
2023-03-22T23:14:28.862Z,1001.40
2023-03-22T23:15:28.861Z,1001.39
2023-03-22T23:16:28.792Z,1001.33
2023-03-22T23:17:28.736Z,1001.35
2023-03-22T23:18:28.695Z,1001.34
2023-03-22T23:19:28.647Z,1001.32
2023-03-22T23:20:28.601Z,1001.34
2023-03-22T23:21:28.561Z,1001.29
2023-03-22T23:22:28.842Z,1001.32
2023-03-22T23:23:28.479Z,1001.29
2023-03-22T23:25:28.400Z,1001.26
2023-03-22T23:26:28.344Z,1001.24
2023-03-22T23:27:28.299Z,1001.17
2023-03-22T23:28:28.277Z,1001.17
2023-03-22T23:29:28.212Z,1001.18
2023-03-22T23:30:28.168Z,1001.18
2023-03-22T23:31:28.123Z,1001.15
2023-03-22T23:32:28.081Z,1001.13
2023-03-22T23:33:28.034Z,1001.10
2023-03-22T23:34:27.992Z,1001.15
2023-03-22T23:35:28.281Z,1001.12
2023-03-22T23:36:27.916Z,1001.18
2023-03-22T23:37:27.891Z,1001.13
2023-03-22T23:38:27.845Z,1001.12
2023-03-22T23:39:27.777Z,1001.15
2023-03-22T23:40:27.779Z,1001.15
2023-03-22T23:41:27.691Z,1001.05
2023-03-22T23:42:27.647Z,1001.05
2023-03-22T23:43:27.621Z,1000.98
2023-03-22T23:44:27.586Z,1001.01
2023-03-22T23:45:27.510Z,1001.05
2023-03-22T23:46:27.472Z,1001.09
2023-03-22T23:47:27.452Z,1001.11
2023-03-22T23:48:27.404Z,1001.07
2023-03-22T23:49:27.345Z,1001.05
2023-03-22T23:50:27.317Z,1001.05
2023-03-22T23:51:27.269Z,1001.07
2023-03-22T23:52:27.228Z,1001.06
2023-03-22T23:53:27.165Z,1001.03
2023-03-22T23:54:27.120Z,1001.02
2023-03-22T23:55:27.073Z,1001.04
2023-03-22T23:56:27.053Z,1001.06
2023-03-22T23:57:26.989Z,1001.09
2023-03-22T23:58:26.945Z,1001.06
2023-03-22T23:59:26.903Z,1001.05
